createdAt,value
2022-12-23T00:01:08.928Z,66.89
2022-12-23T00:03:35.628Z,66.86
2022-12-23T00:06:11.899Z,66.64
2022-12-23T00:08:38.562Z,66.80
2022-12-23T00:11:06.569Z,66.39
2022-12-23T00:13:33.268Z,66.72
2022-12-23T00:16:03.326Z,67.15
2022-12-23T00:18:30.080Z,68.75
2022-12-23T00:21:09.836Z,69.01
2022-12-23T00:23:37.708Z,69.17
2022-12-23T00:26:04.350Z,68.38
2022-12-23T00:28:31.038Z,68.59
2022-12-23T00:31:05.072Z,67.89
2022-12-23T00:33:42.046Z,67.85
2022-12-23T00:36:15.416Z,67.80
2022-12-23T00:38:42.071Z,67.17
2022-12-23T00:41:16.331Z,67.28
2022-12-23T00:43:42.972Z,67.19
2022-12-23T00:46:09.671Z,67.05
2022-12-23T00:48:36.386Z,66.60
2022-12-23T00:51:03.131Z,67.02
2022-12-23T00:53:29.914Z,66.83
2022-12-23T00:55:56.572Z,66.84
2022-12-23T00:58:23.231Z,66.66
2022-12-23T01:00:49.892Z,66.76
2022-12-23T01:03:16.623Z,66.30
2022-12-23T01:05:43.336Z,66.75
2022-12-23T01:08:11.582Z,67.73
2022-12-23T01:10:39.016Z,66.97
2022-12-23T01:13:05.655Z,67.38
2022-12-23T01:15:32.329Z,67.24
2022-12-23T01:17:58.937Z,67.33
2022-12-23T01:20:25.547Z,67.92
2022-12-23T01:22:52.180Z,67.79
2022-12-23T01:25:18.866Z,67.27
2022-12-23T01:27:45.490Z,67.71
2022-12-23T01:30:12.267Z,68.10
2022-12-23T01:32:38.879Z,67.38
2022-12-23T01:35:05.745Z,67.00
2022-12-23T01:37:32.396Z,66.96
2022-12-23T01:39:59.071Z,67.63
2022-12-23T01:42:25.714Z,67.39
2022-12-23T01:44:59.765Z,67.60
2022-12-23T01:47:34.987Z,67.91
2022-12-23T01:50:37.112Z,67.28
2022-12-23T01:53:09.331Z,67.41
2022-12-23T01:55:39.057Z,67.33
2022-12-23T01:58:12.106Z,68.04
2022-12-23T02:00:39.199Z,67.81
2022-12-23T02:03:05.992Z,67.43
2022-12-23T02:05:32.753Z,67.50
2022-12-23T02:07:59.479Z,67.82
2022-12-23T02:10:28.359Z,67.86
2022-12-23T02:13:00.321Z,67.56
2022-12-23T02:15:45.019Z,67.73
2022-12-23T02:18:20.664Z,68.66
2022-12-23T02:21:07.374Z,68.78
2022-12-23T02:23:36.859Z,68.67
2022-12-23T02:26:09.750Z,68.79
2022-12-23T02:29:03.902Z,68.64
2022-12-23T02:31:43.058Z,69.40
2022-12-23T02:34:19.715Z,69.04
2022-12-23T02:37:13.598Z,68.84
2022-12-23T02:39:54.041Z,68.92
2022-12-23T02:42:25.808Z,68.85
2022-12-23T02:45:11.086Z,68.93
2022-12-23T02:47:47.580Z,68.41
2022-12-23T02:50:19.783Z,68.55
2022-12-23T02:52:46.833Z,68.35
2022-12-23T02:55:15.238Z,68.80
2022-12-23T02:57:44.072Z,68.84
2022-12-23T03:00:11.148Z,68.18
2022-12-23T03:02:39.431Z,68.46
2022-12-23T03:05:06.840Z,68.58
2022-12-23T03:07:41.511Z,68.38
2022-12-23T03:10:28.649Z,68.32
2022-12-23T03:13:09.089Z,68.29
2022-12-23T03:15:59.434Z,68.14
2022-12-23T03:18:38.029Z,67.90
2022-12-23T03:21:24.892Z,67.24
2022-12-23T03:23:55.792Z,67.69
2022-12-23T03:26:27.621Z,67.41
2022-12-23T03:28:55.748Z,67.37
2022-12-23T03:31:24.728Z,66.75
2022-12-23T03:34:25.200Z,66.92
2022-12-23T03:36:52.671Z,66.81
2022-12-23T03:39:20.958Z,66.42
2022-12-23T03:41:57.856Z,66.20
2022-12-23T03:44:32.960Z,66.37
2022-12-23T03:47:07.609Z,66.26
2022-12-23T03:49:37.217Z,66.13
2022-12-23T03:52:18.891Z,65.97
2022-12-23T03:54:53.544Z,65.88
2022-12-23T03:57:20.721Z,65.77
2022-12-23T03:59:47.639Z,66.11
2022-12-23T04:02:35.541Z,66.36
2022-12-23T04:05:20.497Z,66.27
2022-12-23T04:08:10.461Z,65.92
2022-12-23T04:10:37.127Z,66.37
2022-12-23T04:13:03.757Z,66.61
2022-12-23T04:15:30.393Z,66.47
2022-12-23T04:17:57.104Z,66.43
2022-12-23T04:20:24.032Z,66.10
2022-12-23T04:22:50.630Z,66.13
2022-12-23T04:25:17.463Z,66.45
2022-12-23T04:27:44.117Z,66.46
2022-12-23T04:30:11.462Z,66.57
2022-12-23T04:32:38.102Z,66.56
2022-12-23T04:35:05.216Z,66.53
2022-12-23T04:37:31.806Z,66.55
2022-12-23T04:39:58.402Z,67.03
2022-12-23T04:42:24.980Z,66.60
2022-12-23T04:44:51.581Z,66.78
2022-12-23T04:47:18.422Z,66.57
2022-12-23T04:49:45.028Z,66.42
2022-12-23T04:52:11.657Z,66.10
2022-12-23T04:54:45.478Z,66.91
2022-12-23T04:57:12.832Z,67.27
2022-12-23T04:59:39.493Z,66.75
2022-12-23T05:02:06.404Z,67.85
2022-12-23T05:04:33.300Z,67.02
2022-12-23T05:06:59.946Z,67.44
2022-12-23T05:09:26.592Z,66.77
2022-12-23T05:11:53.264Z,67.31
2022-12-23T05:14:19.852Z,67.06
2022-12-23T05:16:46.490Z,66.87
2022-12-23T05:19:13.121Z,66.61
2022-12-23T05:21:39.713Z,67.13
2022-12-23T05:24:06.476Z,67.13
2022-12-23T05:26:33.061Z,66.96
2022-12-23T05:28:59.649Z,66.87
2022-12-23T05:31:26.253Z,67.03
2022-12-23T05:33:53.036Z,66.86
2022-12-23T05:36:19.772Z,66.48
2022-12-23T05:38:46.386Z,66.62
2022-12-23T05:41:13.023Z,66.55
2022-12-23T05:43:39.642Z,66.20
2022-12-23T05:46:06.368Z,66.01
2022-12-23T05:48:33.109Z,66.23
2022-12-23T05:50:59.732Z,66.38
2022-12-23T05:53:26.341Z,66.43
2022-12-23T05:55:53.002Z,66.42
2022-12-23T05:58:19.616Z,66.82
2022-12-23T06:00:46.213Z,66.81
2022-12-23T06:03:12.932Z,67.05
2022-12-23T06:05:40.404Z,66.91
2022-12-23T06:08:07.012Z,66.63
2022-12-23T06:10:33.662Z,66.61
2022-12-23T06:13:00.283Z,66.59
2022-12-23T06:15:26.948Z,66.52
2022-12-23T06:17:53.609Z,66.75
2022-12-23T06:20:21.112Z,66.45
2022-12-23T06:22:47.984Z,66.73
2022-12-23T06:25:14.830Z,67.41
2022-12-23T06:27:41.519Z,66.47
2022-12-23T06:30:08.743Z,66.70
2022-12-23T06:32:38.506Z,67.43
2022-12-23T06:35:06.766Z,67.08
2022-12-23T06:37:33.419Z,67.31
2022-12-23T06:40:00.117Z,66.90
2022-12-23T06:42:26.760Z,67.18
2022-12-23T06:44:53.414Z,67.66
2022-12-23T06:47:20.187Z,68.11
2022-12-23T06:49:46.826Z,68.34
2022-12-23T06:52:13.470Z,67.74
2022-12-23T06:54:40.076Z,67.27
2022-12-23T06:57:06.710Z,67.24
2022-12-23T06:59:33.372Z,66.72
2022-12-23T07:02:00.167Z,66.43
2022-12-23T07:04:27.028Z,66.47
2022-12-23T07:06:53.653Z,66.87
2022-12-23T07:09:20.290Z,66.30
2022-12-23T07:11:46.897Z,66.69
2022-12-23T07:14:13.562Z,67.15
2022-12-23T07:16:40.207Z,67.00
2022-12-23T07:19:07.983Z,66.53
2022-12-23T07:21:34.619Z,66.32
2022-12-23T07:24:01.269Z,66.80
2022-12-23T07:26:27.884Z,66.90
2022-12-23T07:28:54.490Z,67.02
2022-12-23T07:31:21.256Z,66.78
2022-12-23T07:33:47.936Z,66.60
2022-12-23T07:36:14.540Z,66.18
2022-12-23T07:38:41.158Z,66.92
2022-12-23T07:41:07.790Z,67.25
2022-12-23T07:43:34.431Z,67.03
2022-12-23T07:46:06.738Z,66.60
2022-12-23T07:48:33.411Z,66.87
2022-12-23T07:51:01.320Z,66.45
2022-12-23T07:53:28.027Z,66.65
2022-12-23T07:55:56.665Z,66.81
2022-12-23T07:58:23.748Z,66.63
2022-12-23T08:00:50.376Z,67.06
2022-12-23T08:03:17.169Z,65.95
2022-12-23T08:05:43.971Z,66.63
2022-12-23T08:08:10.586Z,66.44
2022-12-23T08:10:41.397Z,66.40
2022-12-23T08:13:11.116Z,66.21
2022-12-23T08:15:37.758Z,66.16
2022-12-23T08:18:04.368Z,66.96
2022-12-23T08:20:30.976Z,66.64
2022-12-23T08:22:57.611Z,66.49
2022-12-23T08:25:24.305Z,67.73
2022-12-23T08:27:51.160Z,67.57
2022-12-23T08:30:18.964Z,68.34
2022-12-23T08:32:46.818Z,67.25
2022-12-23T08:35:13.413Z,67.25
2022-12-23T08:37:40.064Z,66.96
2022-12-23T08:40:07.250Z,67.88
2022-12-23T08:42:33.928Z,67.24
2022-12-23T08:45:00.546Z,67.16
2022-12-23T08:47:27.238Z,67.21
2022-12-23T08:49:53.900Z,67.38
2022-12-23T08:52:20.546Z,68.14
2022-12-23T08:54:47.228Z,68.23
2022-12-23T08:57:13.967Z,67.81
2022-12-23T08:59:40.611Z,68.34
2022-12-23T09:02:09.825Z,68.25
2022-12-23T09:04:36.694Z,67.78
2022-12-23T09:07:03.390Z,67.37
2022-12-23T09:09:30.064Z,68.02
2022-12-23T09:11:56.662Z,67.40
2022-12-23T09:14:23.373Z,67.02
2022-12-23T09:16:50.854Z,67.60
2022-12-23T09:19:17.775Z,67.58
2022-12-23T09:21:44.413Z,67.28
2022-12-23T09:24:11.059Z,67.36
2022-12-23T09:26:37.788Z,67.90
2022-12-23T09:29:04.441Z,67.85
2022-12-23T09:31:36.502Z,67.44
2022-12-23T09:34:04.141Z,67.71
2022-12-23T09:36:30.726Z,67.35
2022-12-23T09:38:58.035Z,67.60
2022-12-23T09:41:43.999Z,67.86
2022-12-23T09:44:29.087Z,67.49
2022-12-23T09:46:58.200Z,67.04
2022-12-23T09:49:24.932Z,67.33
2022-12-23T09:51:52.370Z,66.89
2022-12-23T09:54:38.112Z,67.19
2022-12-23T09:57:32.656Z,67.42
2022-12-23T10:00:17.114Z,67.71
2022-12-23T10:03:01.067Z,67.41
2022-12-23T10:05:46.532Z,67.57
2022-12-23T10:08:33.162Z,68.08
2022-12-23T10:11:11.284Z,67.99
2022-12-23T10:13:39.587Z,68.18
2022-12-23T10:16:18.174Z,67.97
2022-12-23T10:18:59.875Z,68.54
2022-12-23T10:21:29.818Z,68.28
2022-12-23T10:23:56.389Z,68.61
2022-12-23T10:26:44.361Z,68.50
2022-12-23T10:29:19.385Z,68.30
2022-12-23T10:32:17.239Z,67.58
2022-12-23T10:35:02.247Z,68.34
2022-12-23T10:37:36.974Z,68.35
2022-12-23T10:40:28.371Z,68.68
2022-12-23T10:43:22.018Z,68.27
2022-12-23T10:45:49.858Z,68.28
2022-12-23T10:48:32.915Z,68.17
2022-12-23T10:51:17.709Z,68.45
2022-12-23T10:53:51.623Z,68.22
2022-12-23T10:56:18.453Z,68.41
2022-12-23T10:58:45.850Z,67.63
2022-12-23T11:01:21.750Z,67.85
2022-12-23T11:04:05.758Z,68.20
2022-12-23T11:06:37.129Z,67.85
2022-12-23T11:09:04.502Z,68.24
2022-12-23T11:11:58.554Z,68.12
2022-12-23T11:14:33.994Z,68.05
2022-12-23T11:17:00.671Z,68.08
2022-12-23T11:19:27.348Z,67.92
2022-12-23T11:21:55.239Z,68.55
2022-12-23T11:24:22.025Z,68.87
2022-12-23T11:27:02.658Z,68.68
2022-12-23T11:29:34.403Z,68.38
2022-12-23T11:32:02.265Z,68.44
2022-12-23T11:34:31.113Z,68.93
2022-12-23T11:37:01.856Z,68.92
2022-12-23T11:39:33.389Z,68.52
2022-12-23T11:42:15.952Z,70.01
2022-12-23T11:44:43.120Z,71.22
2022-12-23T11:47:33.507Z,70.29
2022-12-23T11:50:03.988Z,71.71
2022-12-23T11:52:31.280Z,71.55
2022-12-23T11:54:59.487Z,72.00
2022-12-23T11:57:38.135Z,72.37
2022-12-23T12:00:06.216Z,72.25
2022-12-23T12:02:44.785Z,72.66
2022-12-23T12:05:18.713Z,73.25
2022-12-23T12:07:45.336Z,73.59
2022-12-23T12:10:27.348Z,73.99
2022-12-23T12:12:58.981Z,74.08
2022-12-23T12:15:35.652Z,73.15
2022-12-23T12:18:02.296Z,73.73
2022-12-23T12:20:31.555Z,73.04
2022-12-23T12:23:02.163Z,72.47
2022-12-23T12:25:43.549Z,72.09
2022-12-23T12:28:22.562Z,72.37
2022-12-23T12:30:52.913Z,72.71
2022-12-23T12:33:23.361Z,72.26
2022-12-23T12:36:04.926Z,72.34
2022-12-23T12:38:32.016Z,70.51
2022-12-23T12:41:02.706Z,70.49
2022-12-23T12:43:31.008Z,70.93
2022-12-23T12:46:06.535Z,70.58
2022-12-23T12:48:45.198Z,70.33
2022-12-23T12:51:31.791Z,71.00
2022-12-23T12:54:26.191Z,70.96
2022-12-23T12:56:57.927Z,70.73
2022-12-23T12:59:37.488Z,70.12
2022-12-23T13:02:09.990Z,70.95
2022-12-23T13:04:59.593Z,71.06
2022-12-23T13:07:38.767Z,71.04
2022-12-23T13:10:34.266Z,69.38
2022-12-23T13:13:10.246Z,69.66
2022-12-23T13:15:51.969Z,68.25
2022-12-23T13:18:43.888Z,69.14
2022-12-23T13:21:17.724Z,68.54
2022-12-23T13:24:03.904Z,67.84
2022-12-23T13:26:44.486Z,68.76
2022-12-23T13:29:35.917Z,68.56
2022-12-23T13:32:47.490Z,68.78
2022-12-23T13:35:32.618Z,69.09
2022-12-23T13:38:18.917Z,70.13
2022-12-23T13:41:11.887Z,70.00
2022-12-23T13:43:49.178Z,69.91
2022-12-23T13:46:25.559Z,69.59
2022-12-23T13:49:13.811Z,69.57
2022-12-23T13:52:20.777Z,69.22
2022-12-23T13:55:08.976Z,68.87
2022-12-23T13:57:59.931Z,69.08
2022-12-23T14:00:29.451Z,69.09
2022-12-23T14:02:58.970Z,69.23
2022-12-23T14:05:32.607Z,68.88
2022-12-23T14:08:00.257Z,68.52
2022-12-23T14:10:26.912Z,69.25
2022-12-23T14:12:59.463Z,68.73
2022-12-23T14:15:47.448Z,69.03
2022-12-23T14:18:26.904Z,68.87
2022-12-23T14:21:09.447Z,69.18
2022-12-23T14:24:00.839Z,69.23
2022-12-23T14:27:08.869Z,68.61
2022-12-23T14:29:50.768Z,69.08
2022-12-23T14:32:41.715Z,68.05
2022-12-23T14:35:19.202Z,70.03
2022-12-23T14:38:04.649Z,70.27
2022-12-23T14:40:36.847Z,70.02
2022-12-23T14:43:23.310Z,69.30
2022-12-23T14:46:03.513Z,69.11
2022-12-23T14:48:37.174Z,68.88
2022-12-23T14:51:24.850Z,69.50
2022-12-23T14:53:51.369Z,69.55
2022-12-23T14:56:22.182Z,69.76
2022-12-23T14:58:51.503Z,69.68
2022-12-23T15:01:34.264Z,69.58
2022-12-23T15:04:08.301Z,69.70
2022-12-23T15:06:38.317Z,70.23
2022-12-23T15:09:05.712Z,70.09
2022-12-23T15:11:33.766Z,70.37
2022-12-23T15:14:03.063Z,70.43
2022-12-23T15:16:34.802Z,70.59
2022-12-23T15:19:12.580Z,70.13
2022-12-23T15:21:39.201Z,70.46
2022-12-23T15:24:06.085Z,70.79
2022-12-23T15:26:32.739Z,70.50
2022-12-23T15:28:59.767Z,70.42
2022-12-23T15:31:38.356Z,69.98
2022-12-23T15:34:13.271Z,70.28
2022-12-23T15:36:43.917Z,70.38
2022-12-23T15:39:18.622Z,70.10
2022-12-23T15:41:45.795Z,70.14
2022-12-23T15:44:23.208Z,70.10
2022-12-23T15:46:50.722Z,69.65
2022-12-23T15:49:18.083Z,69.60
2022-12-23T15:52:07.178Z,69.96
2022-12-23T15:54:35.182Z,70.51
2022-12-23T15:57:02.092Z,70.27
2022-12-23T15:59:37.807Z,71.83
2022-12-23T16:02:58.319Z,71.32
2022-12-23T16:05:06.517Z,71.34
2022-12-23T16:07:38.048Z,70.99
2022-12-23T16:10:21.687Z,70.70
2022-12-23T16:12:51.438Z,70.65
2022-12-23T16:15:27.721Z,70.69
2022-12-23T16:18:18.946Z,70.31
2022-12-23T16:20:46.783Z,69.92
2022-12-23T16:23:13.429Z,70.15
2022-12-23T16:25:42.142Z,70.20
2022-12-23T16:28:19.148Z,70.28
2022-12-23T16:30:45.770Z,70.45
2022-12-23T16:33:30.590Z,69.80
2022-12-23T16:35:57.207Z,69.96
2022-12-23T16:38:25.018Z,69.64
2022-12-23T16:40:55.572Z,69.44
2022-12-23T16:43:23.257Z,69.33
2022-12-23T16:45:51.402Z,69.26
2022-12-23T16:48:40.137Z,69.23
2022-12-23T16:51:16.106Z,69.67
2022-12-23T16:53:42.768Z,70.42
2022-12-23T16:56:16.245Z,69.92
2022-12-23T16:58:43.103Z,69.43
2022-12-23T17:01:14.298Z,69.01
2022-12-23T17:03:41.062Z,69.28
2022-12-23T17:06:12.552Z,69.38
2022-12-23T17:08:39.487Z,69.09
2022-12-23T17:11:06.480Z,69.58
2022-12-23T17:13:33.170Z,69.80
2022-12-23T17:15:59.915Z,69.34
2022-12-23T17:18:26.607Z,69.72
2022-12-23T17:20:53.304Z,70.16
2022-12-23T17:23:27.865Z,70.19
2022-12-23T17:25:54.522Z,69.86
2022-12-23T17:28:21.675Z,69.75
2022-12-23T17:30:50.965Z,69.41
2022-12-23T17:33:18.129Z,69.64
2022-12-23T17:35:44.776Z,70.19
2022-12-23T17:38:14.672Z,70.17
2022-12-23T17:40:41.352Z,69.91
2022-12-23T17:43:16.948Z,69.51
2022-12-23T17:45:43.912Z,69.81
2022-12-23T17:48:16.299Z,70.00
2022-12-23T17:50:47.551Z,70.50
2022-12-23T17:53:17.834Z,70.81
2022-12-23T17:55:44.452Z,70.74
2022-12-23T17:58:11.102Z,70.58
2022-12-23T18:00:38.078Z,70.52
2022-12-23T18:03:07.009Z,70.66
2022-12-23T18:05:34.823Z,73.43
2022-12-23T18:08:01.714Z,79.32
2022-12-23T18:10:38.193Z,76.40
2022-12-23T18:13:06.646Z,78.07
2022-12-23T18:15:41.147Z,78.07
2022-12-23T18:18:24.412Z,78.07
2022-12-23T18:20:56.404Z,77.69
2022-12-23T18:23:25.171Z,76.98
2022-12-23T18:25:51.864Z,78.15
2022-12-23T18:28:18.466Z,76.56
2022-12-23T18:30:45.198Z,77.74
2022-12-23T18:33:12.350Z,76.86
2022-12-23T18:35:42.850Z,76.89
2022-12-23T18:38:09.522Z,76.51
2022-12-23T18:40:36.330Z,76.32
2022-12-23T18:43:02.935Z,75.61
2022-12-23T18:45:31.275Z,75.97
2022-12-23T18:47:58.126Z,75.43
2022-12-23T18:50:25.313Z,75.44
2022-12-23T18:52:51.955Z,74.44
2022-12-23T18:55:18.641Z,73.68
2022-12-23T18:57:45.741Z,74.53
2022-12-23T19:00:14.350Z,74.10
2022-12-23T19:02:41.066Z,74.25
2022-12-23T19:05:08.068Z,74.02
2022-12-23T19:07:34.728Z,73.61
2022-12-23T19:10:01.417Z,74.40
2022-12-23T19:12:28.051Z,74.30
2022-12-23T19:14:54.663Z,74.08
2022-12-23T19:17:21.268Z,73.46
2022-12-23T19:19:47.855Z,73.42
2022-12-23T19:22:14.499Z,72.05
2022-12-23T19:24:58.290Z,72.92
2022-12-23T19:27:27.663Z,73.08
2022-12-23T19:29:54.326Z,73.20
2022-12-23T19:32:21.025Z,71.49
2022-12-23T19:34:47.688Z,72.29
2022-12-23T19:37:14.288Z,72.10
2022-12-23T19:39:40.945Z,73.42
2022-12-23T19:42:08.043Z,72.41
2022-12-23T19:44:34.740Z,72.26
2022-12-23T19:47:01.705Z,72.38
2022-12-23T19:49:28.358Z,71.41
2022-12-23T19:51:55.019Z,71.92
2022-12-23T19:54:21.618Z,72.11
2022-12-23T19:56:49.972Z,71.85
2022-12-23T19:59:16.741Z,70.66
2022-12-23T20:01:43.429Z,72.13
2022-12-23T20:04:10.129Z,71.95
2022-12-23T20:06:36.891Z,71.47
2022-12-23T20:09:03.710Z,71.05
2022-12-23T20:11:32.865Z,70.74
2022-12-23T20:13:59.925Z,69.44
2022-12-23T20:16:26.994Z,69.73
2022-12-23T20:18:54.047Z,70.64
2022-12-23T20:21:20.648Z,69.63
2022-12-23T20:23:47.392Z,69.04
2022-12-23T20:26:14.169Z,70.17
2022-12-23T20:28:40.843Z,69.10
2022-12-23T20:31:09.719Z,68.98
2022-12-23T20:33:36.866Z,69.94
2022-12-23T20:36:07.588Z,69.44
2022-12-23T20:38:35.035Z,69.03
2022-12-23T20:41:01.664Z,70.25
2022-12-23T20:43:28.414Z,69.35
2022-12-23T20:45:55.051Z,70.59
2022-12-23T20:48:21.769Z,69.39
2022-12-23T20:50:48.675Z,69.90
2022-12-23T20:53:15.320Z,70.59
2022-12-23T20:55:41.971Z,70.41
2022-12-23T20:58:08.585Z,69.69
2022-12-23T21:00:35.219Z,70.27
2022-12-23T21:03:08.411Z,70.69
2022-12-23T21:05:36.929Z,69.60
2022-12-23T21:08:03.542Z,69.09
2022-12-23T21:10:30.190Z,69.56
2022-12-23T21:12:56.793Z,69.82
2022-12-23T21:15:23.389Z,70.23
2022-12-23T21:17:49.967Z,70.70
2022-12-23T21:20:16.604Z,70.62
2022-12-23T21:22:43.212Z,69.94
2022-12-23T21:25:10.361Z,70.13
2022-12-23T21:27:36.999Z,70.04
2022-12-23T21:30:03.871Z,70.75
2022-12-23T21:32:30.493Z,70.12
2022-12-23T21:34:57.128Z,69.71
2022-12-23T21:37:23.751Z,69.02
2022-12-23T21:39:50.353Z,70.06
2022-12-23T21:42:16.997Z,69.33
2022-12-23T21:44:43.599Z,69.44
2022-12-23T21:47:10.257Z,68.70
2022-12-23T21:49:36.854Z,69.44
2022-12-23T21:52:03.614Z,69.79
2022-12-23T21:54:30.224Z,69.40
2022-12-23T21:56:56.855Z,69.52
2022-12-23T21:59:23.505Z,69.67
2022-12-23T22:01:50.240Z,69.64
2022-12-23T22:04:16.911Z,70.25
2022-12-23T22:06:43.937Z,70.17
2022-12-23T22:09:15.165Z,70.71
2022-12-23T22:11:41.999Z,70.48
2022-12-23T22:14:09.999Z,69.11
2022-12-23T22:16:36.736Z,69.43
2022-12-23T22:19:04.072Z,70.26
2022-12-23T22:21:31.182Z,69.34
2022-12-23T22:23:57.867Z,69.80
2022-12-23T22:26:26.483Z,69.11
2022-12-23T22:28:54.617Z,69.67
2022-12-23T22:31:27.599Z,68.91
2022-12-23T22:33:54.288Z,69.50
2022-12-23T22:36:20.975Z,69.47
2022-12-23T22:38:55.112Z,70.25
2022-12-23T22:41:21.773Z,71.03
2022-12-23T22:43:48.386Z,70.74
2022-12-23T22:46:15.047Z,69.78
2022-12-23T22:48:41.756Z,70.07
2022-12-23T22:51:13.347Z,70.13
2022-12-23T22:53:39.985Z,69.39
2022-12-23T22:56:07.159Z,69.73
2022-12-23T22:58:33.793Z,70.17
2022-12-23T23:01:00.564Z,70.66
2022-12-23T23:03:27.210Z,70.04
2022-12-23T23:06:00.607Z,71.22
2022-12-23T23:08:27.912Z,69.93
2022-12-23T23:10:56.185Z,70.08
2022-12-23T23:13:23.073Z,70.07
2022-12-23T23:15:49.710Z,70.44
2022-12-23T23:18:16.440Z,69.92
2022-12-23T23:20:43.052Z,71.02
2022-12-23T23:23:09.677Z,71.23
2022-12-23T23:25:36.280Z,71.43
2022-12-23T23:28:02.872Z,71.56
2022-12-23T23:30:29.593Z,71.67
2022-12-23T23:32:56.242Z,72.06
2022-12-23T23:35:22.893Z,73.00
2022-12-23T23:37:49.512Z,72.18
2022-12-23T23:40:16.147Z,72.11
2022-12-23T23:42:42.797Z,72.20
2022-12-23T23:45:09.784Z,71.51
2022-12-23T23:47:36.424Z,72.26
2022-12-23T23:50:03.866Z,71.82
2022-12-23T23:52:30.588Z,71.70
2022-12-23T23:54:57.239Z,71.93
2022-12-23T23:57:23.876Z,71.98
2022-12-23T23:59:50.474Z,71.73
